sensor_id;sensor_type;location;lat;lon;timestamp;temperature;humidity
4896;DHT22;2463;49.948;8.472;2022-10-31T00:00:47;11.40;99.90
4896;DHT22;2463;49.948;8.472;2022-10-31T00:03:15;11.40;99.90
4896;DHT22;2463;49.948;8.472;2022-10-31T00:05:50;11.40;99.90
4896;DHT22;2463;49.948;8.472;2022-10-31T00:08:18;11.40;99.90
4896;DHT22;2463;49.948;8.472;2022-10-31T00:10:45;11.40;99.90
4896;DHT22;2463;49.948;8.472;2022-10-31T00:13:13;11.40;99.90
4896;DHT22;2463;49.948;8.472;2022-10-31T00:15:40;11.40;99.90
4896;DHT22;2463;49.948;8.472;2022-10-31T00:18:09;11.30;99.90
4896;DHT22;2463;49.948;8.472;2022-10-31T00:20:36;11.20;99.90
4896;DHT22;2463;49.948;8.472;2022-10-31T00:23:04;11.10;99.90
4896;DHT22;2463;49.948;8.472;2022-10-31T00:25:35;11.10;99.90
4896;DHT22;2463;49.948;8.472;2022-10-31T00:28:03;11.10;99.90
4896;DHT22;2463;49.948;8.472;2022-10-31T00:30:30;11.10;99.90
4896;DHT22;2463;49.948;8.472;2022-10-31T00:32:57;11.10;99.90
4896;DHT22;2463;49.948;8.472;2022-10-31T00:35:25;11.00;99.90
4896;DHT22;2463;49.948;8.472;2022-10-31T00:37:52;11.00;99.90
4896;DHT22;2463;49.948;8.472;2022-10-31T00:40:18;11.00;99.90
4896;DHT22;2463;49.948;8.472;2022-10-31T00:42:45;11.00;99.90
4896;DHT22;2463;49.948;8.472;2022-10-31T00:45:12;11.00;99.90
4896;DHT22;2463;49.948;8.472;2022-10-31T00:47:39;11.10;99.90
4896;DHT22;2463;49.948;8.472;2022-10-31T00:50:07;11.10;99.90
4896;DHT22;2463;49.948;8.472;2022-10-31T00:52:34;11.10;99.90
4896;DHT22;2463;49.948;8.472;2022-10-31T00:55:01;11.10;99.90
4896;DHT22;2463;49.948;8.472;2022-10-31T00:57:27;11.10;99.90
4896;DHT22;2463;49.948;8.472;2022-10-31T00:59:54;11.10;99.90
4896;DHT22;2463;49.948;8.472;2022-10-31T01:02:21;11.00;99.90
4896;DHT22;2463;49.948;8.472;2022-10-31T01:04:48;11.00;99.90
4896;DHT22;2463;49.948;8.472;2022-10-31T01:07:14;11.00;99.90
4896;DHT22;2463;49.948;8.472;2022-10-31T01:09:41;11.00;99.90
4896;DHT22;2463;49.948;8.472;2022-10-31T01:12:08;11.00;99.90
4896;DHT22;2463;49.948;8.472;2022-10-31T01:14:35;11.00;99.90
4896;DHT22;2463;49.948;8.472;2022-10-31T01:17:01;11.00;99.90
4896;DHT22;2463;49.948;8.472;2022-10-31T01:19:28;11.00;99.90
4896;DHT22;2463;49.948;8.472;2022-10-31T01:21:55;11.00;99.90
4896;DHT22;2463;49.948;8.472;2022-10-31T01:24:22;11.00;99.90
4896;DHT22;2463;49.948;8.472;2022-10-31T01:26:48;11.00;99.90
4896;DHT22;2463;49.948;8.472;2022-10-31T01:29:15;11.00;99.90
4896;DHT22;2463;49.948;8.472;2022-10-31T01:31:42;11.00;99.90
4896;DHT22;2463;49.948;8.472;2022-10-31T01:34:13;11.00;99.90
4896;DHT22;2463;49.948;8.472;2022-10-31T01:36:40;11.10;99.90
4896;DHT22;2463;49.948;8.472;2022-10-31T01:39:15;11.10;99.90
4896;DHT22;2463;49.948;8.472;2022-10-31T01:41:44;11.10;99.90
4896;DHT22;2463;49.948;8.472;2022-10-31T01:49:31;11.10;99.90
4896;DHT22;2463;49.948;8.472;2022-10-31T01:52:10;11.00;99.90
4896;DHT22;2463;49.948;8.472;2022-10-31T01:54:46;11.00;99.90
4896;DHT22;2463;49.948;8.472;2022-10-31T01:57:15;11.00;99.90
4896;DHT22;2463;49.948;8.472;2022-10-31T01:59:47;11.00;99.90
4896;DHT22;2463;49.948;8.472;2022-10-31T02:02:16;10.90;99.90
4896;DHT22;2463;49.948;8.472;2022-10-31T02:04:45;10.90;99.90
4896;DHT22;2463;49.948;8.472;2022-10-31T02:07:16;10.80;99.90
4896;DHT22;2463;49.948;8.472;2022-10-31T02:09:45;10.80;99.90
4896;DHT22;2463;49.948;8.472;2022-10-31T02:12:13;10.80;99.90
4896;DHT22;2463;49.948;8.472;2022-10-31T02:14:40;10.70;99.90
4896;DHT22;2463;49.948;8.472;2022-10-31T02:17:08;10.70;99.90
4896;DHT22;2463;49.948;8.472;2022-10-31T02:19:52;10.60;99.90
4896;DHT22;2463;49.948;8.472;2022-10-31T02:25:30;10.50;99.90
4896;DHT22;2463;49.948;8.472;2022-10-31T02:34:19;10.50;99.90
4896;DHT22;2463;49.948;8.472;2022-10-31T02:36:59;10.50;99.90
4896;DHT22;2463;49.948;8.472;2022-10-31T02:39:38;10.50;99.90
4896;DHT22;2463;49.948;8.472;2022-10-31T02:42:12;10.50;99.90
4896;DHT22;2463;49.948;8.472;2022-10-31T02:44:51;10.40;99.90
4896;DHT22;2463;49.948;8.472;2022-10-31T02:47:29;10.40;99.90
4896;DHT22;2463;49.948;8.472;2022-10-31T02:50:01;10.40;99.90
4896;DHT22;2463;49.948;8.472;2022-10-31T02:52:31;10.40;99.90
4896;DHT22;2463;49.948;8.472;2022-10-31T02:54:58;10.40;99.90
4896;DHT22;2463;49.948;8.472;2022-10-31T02:57:36;10.40;99.90
4896;DHT22;2463;49.948;8.472;2022-10-31T03:00:06;10.50;99.90
4896;DHT22;2463;49.948;8.472;2022-10-31T03:08:33;10.60;99.90
4896;DHT22;2463;49.948;8.472;2022-10-31T03:11:06;10.60;99.90
4896;DHT22;2463;49.948;8.472;2022-10-31T03:16:51;10.60;99.90
4896;DHT22;2463;49.948;8.472;2022-10-31T03:19:26;10.70;99.90
4896;DHT22;2463;49.948;8.472;2022-10-31T03:22:07;10.70;99.90
4896;DHT22;2463;49.948;8.472;2022-10-31T03:24:38;10.60;99.90
4896;DHT22;2463;49.948;8.472;2022-10-31T03:27:07;10.60;99.90
4896;DHT22;2463;49.948;8.472;2022-10-31T03:29:36;10.60;99.90
4896;DHT22;2463;49.948;8.472;2022-10-31T03:32:13;10.70;99.90
4896;DHT22;2463;49.948;8.472;2022-10-31T03:34:42;10.60;99.90
4896;DHT22;2463;49.948;8.472;2022-10-31T03:37:13;10.60;99.90
4896;DHT22;2463;49.948;8.472;2022-10-31T03:39:42;10.60;99.90
4896;DHT22;2463;49.948;8.472;2022-10-31T03:42:22;10.60;99.90
4896;DHT22;2463;49.948;8.472;2022-10-31T03:44:57;10.60;99.90
4896;DHT22;2463;49.948;8.472;2022-10-31T03:47:25;10.60;99.90
4896;DHT22;2463;49.948;8.472;2022-10-31T03:49:52;10.60;99.90
4896;DHT22;2463;49.948;8.472;2022-10-31T03:52:41;10.50;99.90
4896;DHT22;2463;49.948;8.472;2022-10-31T03:55:17;10.50;99.90
4896;DHT22;2463;49.948;8.472;2022-10-31T03:58:04;10.50;99.90
4896;DHT22;2463;49.948;8.472;2022-10-31T04:00:33;10.50;99.90
4896;DHT22;2463;49.948;8.472;2022-10-31T04:03:07;10.40;99.90
4896;DHT22;2463;49.948;8.472;2022-10-31T04:05:37;10.40;99.90
4896;DHT22;2463;49.948;8.472;2022-10-31T04:08:07;10.40;99.90
4896;DHT22;2463;49.948;8.472;2022-10-31T04:10:37;10.40;99.90
4896;DHT22;2463;49.948;8.472;2022-10-31T04:13:07;10.40;99.90
4896;DHT22;2463;49.948;8.472;2022-10-31T04:15:36;10.30;99.90
4896;DHT22;2463;49.948;8.472;2022-10-31T04:18:04;10.40;99.90
4896;DHT22;2463;49.948;8.472;2022-10-31T04:20:36;10.40;99.90
4896;DHT22;2463;49.948;8.472;2022-10-31T04:23:04;10.30;99.90
4896;DHT22;2463;49.948;8.472;2022-10-31T04:25:31;10.30;99.90
4896;DHT22;2463;49.948;8.472;2022-10-31T04:27:58;10.30;99.90
4896;DHT22;2463;49.948;8.472;2022-10-31T04:30:25;10.30;99.90
4896;DHT22;2463;49.948;8.472;2022-10-31T04:32:52;10.30;99.90
4896;DHT22;2463;49.948;8.472;2022-10-31T04:35:18;10.30;99.90
4896;DHT22;2463;49.948;8.472;2022-10-31T04:37:45;10.30;99.90
4896;DHT22;2463;49.948;8.472;2022-10-31T04:40:12;10.30;99.90
4896;DHT22;2463;49.948;8.472;2022-10-31T04:42:38;10.30;99.90
4896;DHT22;2463;49.948;8.472;2022-10-31T04:45:05;10.30;99.90
4896;DHT22;2463;49.948;8.472;2022-10-31T04:47:32;10.30;99.90
4896;DHT22;2463;49.948;8.472;2022-10-31T04:50:00;10.40;99.90
4896;DHT22;2463;49.948;8.472;2022-10-31T04:52:27;10.40;99.90
4896;DHT22;2463;49.948;8.472;2022-10-31T04:54:54;10.40;99.90
4896;DHT22;2463;49.948;8.472;2022-10-31T04:57:21;10.40;99.90
4896;DHT22;2463;49.948;8.472;2022-10-31T04:59:48;10.40;99.90
4896;DHT22;2463;49.948;8.472;2022-10-31T05:02:15;10.40;99.90
4896;DHT22;2463;49.948;8.472;2022-10-31T05:04:42;10.40;99.90
4896;DHT22;2463;49.948;8.472;2022-10-31T05:07:08;10.40;99.90
4896;DHT22;2463;49.948;8.472;2022-10-31T05:09:35;10.40;99.90
4896;DHT22;2463;49.948;8.472;2022-10-31T05:12:02;10.40;99.90
4896;DHT22;2463;49.948;8.472;2022-10-31T05:14:28;10.50;99.90
4896;DHT22;2463;49.948;8.472;2022-10-31T05:16:55;10.40;99.90
4896;DHT22;2463;49.948;8.472;2022-10-31T05:19:22;10.40;99.90
4896;DHT22;2463;49.948;8.472;2022-10-31T05:21:48;10.40;99.90
4896;DHT22;2463;49.948;8.472;2022-10-31T05:24:15;10.40;99.90
4896;DHT22;2463;49.948;8.472;2022-10-31T05:26:42;10.40;99.90
4896;DHT22;2463;49.948;8.472;2022-10-31T05:29:08;10.40;99.90
4896;DHT22;2463;49.948;8.472;2022-10-31T05:31:35;10.40;99.90
4896;DHT22;2463;49.948;8.472;2022-10-31T05:34:01;10.40;99.90
4896;DHT22;2463;49.948;8.472;2022-10-31T05:36:28;10.40;99.90
4896;DHT22;2463;49.948;8.472;2022-10-31T05:38:55;10.40;99.90
4896;DHT22;2463;49.948;8.472;2022-10-31T05:41:21;10.40;99.90
4896;DHT22;2463;49.948;8.472;2022-10-31T05:43:48;10.40;99.90
4896;DHT22;2463;49.948;8.472;2022-10-31T05:46:15;10.40;99.90
4896;DHT22;2463;49.948;8.472;2022-10-31T05:48:41;10.40;99.90
4896;DHT22;2463;49.948;8.472;2022-10-31T05:51:08;10.40;99.90
4896;DHT22;2463;49.948;8.472;2022-10-31T05:53:35;10.40;99.90
4896;DHT22;2463;49.948;8.472;2022-10-31T05:56:01;10.40;99.90
4896;DHT22;2463;49.948;8.472;2022-10-31T05:58:28;10.40;99.90
4896;DHT22;2463;49.948;8.472;2022-10-31T06:00:55;10.30;99.90
4896;DHT22;2463;49.948;8.472;2022-10-31T06:03:21;10.30;99.90
4896;DHT22;2463;49.948;8.472;2022-10-31T06:05:48;10.40;99.90
4896;DHT22;2463;49.948;8.472;2022-10-31T06:08:20;10.30;99.90
4896;DHT22;2463;49.948;8.472;2022-10-31T06:10:47;10.40;99.90
4896;DHT22;2463;49.948;8.472;2022-10-31T06:13:14;10.40;99.90
4896;DHT22;2463;49.948;8.472;2022-10-31T06:15:41;10.40;99.90
4896;DHT22;2463;49.948;8.472;2022-10-31T06:18:08;10.30;99.90
4896;DHT22;2463;49.948;8.472;2022-10-31T06:20:35;10.30;99.90
4896;DHT22;2463;49.948;8.472;2022-10-31T06:23:03;10.30;99.90
4896;DHT22;2463;49.948;8.472;2022-10-31T06:25:30;10.30;99.90
4896;DHT22;2463;49.948;8.472;2022-10-31T06:27:57;10.40;99.90
4896;DHT22;2463;49.948;8.472;2022-10-31T06:30:24;10.40;99.90
4896;DHT22;2463;49.948;8.472;2022-10-31T06:32:51;10.50;99.90
4896;DHT22;2463;49.948;8.472;2022-10-31T06:35:18;10.50;99.90
4896;DHT22;2463;49.948;8.472;2022-10-31T06:37:51;10.60;99.90
4896;DHT22;2463;49.948;8.472;2022-10-31T06:40:18;10.70;99.90
4896;DHT22;2463;49.948;8.472;2022-10-31T06:42:45;10.70;99.90
4896;DHT22;2463;49.948;8.472;2022-10-31T06:45:12;10.80;99.90
4896;DHT22;2463;49.948;8.472;2022-10-31T06:47:39;10.90;99.90
4896;DHT22;2463;49.948;8.472;2022-10-31T06:50:26;10.90;99.90
4896;DHT22;2463;49.948;8.472;2022-10-31T06:52:57;11.00;99.90
4896;DHT22;2463;49.948;8.472;2022-10-31T06:55:25;11.10;99.90
4896;DHT22;2463;49.948;8.472;2022-10-31T06:57:56;11.20;99.90
4896;DHT22;2463;49.948;8.472;2022-10-31T07:00:30;11.30;99.90
4896;DHT22;2463;49.948;8.472;2022-10-31T07:03:02;11.40;99.90
4896;DHT22;2463;49.948;8.472;2022-10-31T07:05:30;11.50;99.90
4896;DHT22;2463;49.948;8.472;2022-10-31T07:07:59;11.60;99.90
4896;DHT22;2463;49.948;8.472;2022-10-31T07:10:28;11.70;99.90
4896;DHT22;2463;49.948;8.472;2022-10-31T07:13:01;11.80;99.90
4896;DHT22;2463;49.948;8.472;2022-10-31T07:15:30;11.90;99.90
4896;DHT22;2463;49.948;8.472;2022-10-31T07:18:03;12.00;99.90
4896;DHT22;2463;49.948;8.472;2022-10-31T07:20:31;12.10;99.90
4896;DHT22;2463;49.948;8.472;2022-10-31T07:22:58;12.30;99.90
4896;DHT22;2463;49.948;8.472;2022-10-31T07:25:25;12.40;99.90
4896;DHT22;2463;49.948;8.472;2022-10-31T07:27:52;12.60;99.90
4896;DHT22;2463;49.948;8.472;2022-10-31T07:30:19;12.70;99.90
4896;DHT22;2463;49.948;8.472;2022-10-31T07:32:47;12.90;99.90
4896;DHT22;2463;49.948;8.472;2022-10-31T07:35:17;13.10;99.90
4896;DHT22;2463;49.948;8.472;2022-10-31T07:37:44;13.20;99.90
4896;DHT22;2463;49.948;8.472;2022-10-31T07:40:11;13.40;99.90
4896;DHT22;2463;49.948;8.472;2022-10-31T07:42:40;13.60;99.90
4896;DHT22;2463;49.948;8.472;2022-10-31T07:45:09;13.80;99.90
4896;DHT22;2463;49.948;8.472;2022-10-31T07:47:40;13.90;99.90
4896;DHT22;2463;49.948;8.472;2022-10-31T07:50:09;14.10;99.90
4896;DHT22;2463;49.948;8.472;2022-10-31T07:52:36;14.30;99.90
4896;DHT22;2463;49.948;8.472;2022-10-31T07:55:04;14.50;99.90
4896;DHT22;2463;49.948;8.472;2022-10-31T07:57:31;14.70;99.90
4896;DHT22;2463;49.948;8.472;2022-10-31T08:00:00;14.90;99.90
4896;DHT22;2463;49.948;8.472;2022-10-31T08:02:27;15.10;99.90
4896;DHT22;2463;49.948;8.472;2022-10-31T08:04:53;15.40;99.90
4896;DHT22;2463;49.948;8.472;2022-10-31T08:07:26;15.80;99.90
4896;DHT22;2463;49.948;8.472;2022-10-31T08:09:54;16.50;99.90
4896;DHT22;2463;49.948;8.472;2022-10-31T08:12:21;17.00;99.90
4896;DHT22;2463;49.948;8.472;2022-10-31T08:14:48;17.30;99.90
4896;DHT22;2463;49.948;8.472;2022-10-31T08:17:14;17.30;99.90
4896;DHT22;2463;49.948;8.472;2022-10-31T08:19:41;17.30;99.90
4896;DHT22;2463;49.948;8.472;2022-10-31T08:22:08;17.20;99.90
4896;DHT22;2463;49.948;8.472;2022-10-31T08:24:34;17.10;99.90
4896;DHT22;2463;49.948;8.472;2022-10-31T08:27:01;17.00;99.90
4896;DHT22;2463;49.948;8.472;2022-10-31T08:29:28;17.00;99.90
4896;DHT22;2463;49.948;8.472;2022-10-31T08:31:55;16.90;99.90
4896;DHT22;2463;49.948;8.472;2022-10-31T08:34:24;16.90;99.90
4896;DHT22;2463;49.948;8.472;2022-10-31T08:36:51;16.90;99.90
4896;DHT22;2463;49.948;8.472;2022-10-31T08:39:18;17.00;99.90
4896;DHT22;2463;49.948;8.472;2022-10-31T08:41:45;17.00;99.90
4896;DHT22;2463;49.948;8.472;2022-10-31T08:44:11;17.30;99.90
4896;DHT22;2463;49.948;8.472;2022-10-31T08:46:38;17.50;99.90
4896;DHT22;2463;49.948;8.472;2022-10-31T08:49:05;17.70;99.90
4896;DHT22;2463;49.948;8.472;2022-10-31T08:51:32;17.80;99.90
4896;DHT22;2463;49.948;8.472;2022-10-31T08:53:58;17.90;99.90
4896;DHT22;2463;49.948;8.472;2022-10-31T08:56:25;17.90;99.90
4896;DHT22;2463;49.948;8.472;2022-10-31T08:58:53;17.90;99.90
4896;DHT22;2463;49.948;8.472;2022-10-31T09:01:20;17.90;99.90
4896;DHT22;2463;49.948;8.472;2022-10-31T09:03:47;18.00;99.90
4896;DHT22;2463;49.948;8.472;2022-10-31T09:06:13;18.20;99.90
4896;DHT22;2463;49.948;8.472;2022-10-31T09:08:40;18.50;99.90
4896;DHT22;2463;49.948;8.472;2022-10-31T09:11:07;19.10;99.90
4896;DHT22;2463;49.948;8.472;2022-10-31T09:13:33;19.80;99.90
4896;DHT22;2463;49.948;8.472;2022-10-31T09:16:06;20.30;99.90
4896;DHT22;2463;49.948;8.472;2022-10-31T09:18:33;20.60;99.90
4896;DHT22;2463;49.948;8.472;2022-10-31T09:21:00;20.90;99.90
4896;DHT22;2463;49.948;8.472;2022-10-31T09:23:27;21.00;99.90
4896;DHT22;2463;49.948;8.472;2022-10-31T09:25:55;21.20;99.90
4896;DHT22;2463;49.948;8.472;2022-10-31T09:28:23;21.20;99.90
4896;DHT22;2463;49.948;8.472;2022-10-31T09:30:51;21.40;99.90
4896;DHT22;2463;49.948;8.472;2022-10-31T09:33:19;21.50;99.90
4896;DHT22;2463;49.948;8.472;2022-10-31T09:35:46;21.60;99.90
4896;DHT22;2463;49.948;8.472;2022-10-31T09:38:15;21.60;99.90
4896;DHT22;2463;49.948;8.472;2022-10-31T09:41:17;21.70;99.90
4896;DHT22;2463;49.948;8.472;2022-10-31T09:44:04;21.80;99.90
4896;DHT22;2463;49.948;8.472;2022-10-31T09:46:48;22.00;99.90
4896;DHT22;2463;49.948;8.472;2022-10-31T09:52:17;22.30;99.90
4896;DHT22;2463;49.948;8.472;2022-10-31T09:54:52;22.30;99.90
4896;DHT22;2463;49.948;8.472;2022-10-31T09:57:25;22.30;99.90
4896;DHT22;2463;49.948;8.472;2022-10-31T09:59:53;22.20;99.90
4896;DHT22;2463;49.948;8.472;2022-10-31T10:02:28;22.20;99.90
4896;DHT22;2463;49.948;8.472;2022-10-31T10:05:02;22.00;99.90
4896;DHT22;2463;49.948;8.472;2022-10-31T10:21:09;21.50;99.90
4896;DHT22;2463;49.948;8.472;2022-10-31T10:23:55;21.60;99.90
4896;DHT22;2463;49.948;8.472;2022-10-31T10:26:30;21.70;99.90
4896;DHT22;2463;49.948;8.472;2022-10-31T10:29:03;22.00;99.90
4896;DHT22;2463;49.948;8.472;2022-10-31T10:31:38;22.30;99.90
4896;DHT22;2463;49.948;8.472;2022-10-31T10:34:22;22.50;99.90
4896;DHT22;2463;49.948;8.472;2022-10-31T10:39:45;22.80;99.90
4896;DHT22;2463;49.948;8.472;2022-10-31T10:42:15;23.00;99.90
4896;DHT22;2463;49.948;8.472;2022-10-31T10:45:14;23.20;99.90
4896;DHT22;2463;49.948;8.472;2022-10-31T10:48:07;23.50;99.90
4896;DHT22;2463;49.948;8.472;2022-10-31T10:50:41;23.90;99.90
4896;DHT22;2463;49.948;8.472;2022-10-31T10:55:56;25.10;99.90
4896;DHT22;2463;49.948;8.472;2022-10-31T10:58:26;25.70;99.90
4896;DHT22;2463;49.948;8.472;2022-10-31T11:00:54;26.40;99.90
4896;DHT22;2463;49.948;8.472;2022-10-31T11:03:21;27.10;99.90
4896;DHT22;2463;49.948;8.472;2022-10-31T11:05:52;27.90;99.90
4896;DHT22;2463;49.948;8.472;2022-10-31T11:08:33;28.50;99.90
4896;DHT22;2463;49.948;8.472;2022-10-31T11:11:05;28.90;99.90
4896;DHT22;2463;49.948;8.472;2022-10-31T11:13:35;29.30;99.90
4896;DHT22;2463;49.948;8.472;2022-10-31T11:19:08;29.80;99.90
4896;DHT22;2463;49.948;8.472;2022-10-31T11:21:36;30.00;99.90
4896;DHT22;2463;49.948;8.472;2022-10-31T11:26:37;30.00;99.90
4896;DHT22;2463;49.948;8.472;2022-10-31T11:29:17;30.00;99.90
4896;DHT22;2463;49.948;8.472;2022-10-31T11:31:47;30.20;99.90
4896;DHT22;2463;49.948;8.472;2022-10-31T11:34:25;30.40;99.70
4896;DHT22;2463;49.948;8.472;2022-10-31T11:36:53;30.80;99.20
4896;DHT22;2463;49.948;8.472;2022-10-31T11:39:22;31.20;98.60
4896;DHT22;2463;49.948;8.472;2022-10-31T11:41:52;31.10;96.80
4896;DHT22;2463;49.948;8.472;2022-10-31T11:44:30;31.40;97.10
4896;DHT22;2463;49.948;8.472;2022-10-31T11:47:04;31.80;95.90
4896;DHT22;2463;49.948;8.472;2022-10-31T11:49:40;32.30;96.10
4896;DHT22;2463;49.948;8.472;2022-10-31T11:52:20;32.70;95.50
4896;DHT22;2463;49.948;8.472;2022-10-31T11:54:52;33.20;94.20
4896;DHT22;2463;49.948;8.472;2022-10-31T11:59:57;33.40;92.80
4896;DHT22;2463;49.948;8.472;2022-10-31T12:02:25;33.50;92.70
4896;DHT22;2463;49.948;8.472;2022-10-31T12:07:28;33.60;92.20
4896;DHT22;2463;49.948;8.472;2022-10-31T12:09:54;33.70;92.10
4896;DHT22;2463;49.948;8.472;2022-10-31T12:17:28;33.00;90.90
4896;DHT22;2463;49.948;8.472;2022-10-31T12:25:50;32.60;92.00
4896;DHT22;2463;49.948;8.472;2022-10-31T12:31:49;33.70;90.30
4896;DHT22;2463;49.948;8.472;2022-10-31T12:34:40;33.90;90.10
4896;DHT22;2463;49.948;8.472;2022-10-31T12:45:35;33.90;87.50
4896;DHT22;2463;49.948;8.472;2022-10-31T12:48:38;33.30;88.60
4896;DHT22;2463;49.948;8.472;2022-10-31T12:57:12;31.40;90.90
4896;DHT22;2463;49.948;8.472;2022-10-31T12:59:45;30.90;91.30
4896;DHT22;2463;49.948;8.472;2022-10-31T13:02:36;30.30;92.00
4896;DHT22;2463;49.948;8.472;2022-10-31T13:05:29;29.70;92.40
4896;DHT22;2463;49.948;8.472;2022-10-31T13:08:16;29.00;93.00
4896;DHT22;2463;49.948;8.472;2022-10-31T13:11:08;28.30;94.10
4896;DHT22;2463;49.948;8.472;2022-10-31T13:16:15;27.20;96.00
4896;DHT22;2463;49.948;8.472;2022-10-31T13:18:48;26.80;96.80
4896;DHT22;2463;49.948;8.472;2022-10-31T13:21:25;26.40;97.50
4896;DHT22;2463;49.948;8.472;2022-10-31T13:23:54;26.00;98.30
4896;DHT22;2463;49.948;8.472;2022-10-31T13:26:37;25.70;99.20
4896;DHT22;2463;49.948;8.472;2022-10-31T13:29:19;25.30;99.90
4896;DHT22;2463;49.948;8.472;2022-10-31T13:31:51;25.00;99.90
4896;DHT22;2463;49.948;8.472;2022-10-31T13:43:04;23.60;99.90
4896;DHT22;2463;49.948;8.472;2022-10-31T13:45:33;23.40;99.90
4896;DHT22;2463;49.948;8.472;2022-10-31T13:50:30;22.90;99.90
4896;DHT22;2463;49.948;8.472;2022-10-31T13:53:35;22.80;99.90
4896;DHT22;2463;49.948;8.472;2022-10-31T13:58:54;22.30;99.90
4896;DHT22;2463;49.948;8.472;2022-10-31T14:01:23;22.10;99.90
4896;DHT22;2463;49.948;8.472;2022-10-31T14:04:05;22.00;99.90
4896;DHT22;2463;49.948;8.472;2022-10-31T14:06:54;21.80;99.90
4896;DHT22;2463;49.948;8.472;2022-10-31T14:11:53;21.50;99.90
4896;DHT22;2463;49.948;8.472;2022-10-31T14:14:23;21.40;99.90
4896;DHT22;2463;49.948;8.472;2022-10-31T14:16:55;21.40;99.90
4896;DHT22;2463;49.948;8.472;2022-10-31T14:19:23;21.60;99.90
4896;DHT22;2463;49.948;8.472;2022-10-31T14:21:50;22.30;99.90
4896;DHT22;2463;49.948;8.472;2022-10-31T14:27:04;22.90;99.90
4896;DHT22;2463;49.948;8.472;2022-10-31T14:29:33;22.90;99.90
4896;DHT22;2463;49.948;8.472;2022-10-31T14:34:59;23.40;99.90
4896;DHT22;2463;49.948;8.472;2022-10-31T14:40:29;25.90;99.90
4896;DHT22;2463;49.948;8.472;2022-10-31T14:51:12;26.60;99.90
4896;DHT22;2463;49.948;8.472;2022-10-31T14:53:50;26.00;99.90
4896;DHT22;2463;49.948;8.472;2022-10-31T14:56:24;25.30;99.90
4896;DHT22;2463;49.948;8.472;2022-10-31T14:58:53;24.60;99.90
4896;DHT22;2463;49.948;8.472;2022-10-31T15:01:25;24.00;99.90
4896;DHT22;2463;49.948;8.472;2022-10-31T15:04:05;23.50;99.90
4896;DHT22;2463;49.948;8.472;2022-10-31T15:06:54;23.10;99.90
4896;DHT22;2463;49.948;8.472;2022-10-31T15:09:30;22.40;99.90
4896;DHT22;2463;49.948;8.472;2022-10-31T15:12:14;22.10;99.90
4896;DHT22;2463;49.948;8.472;2022-10-31T15:14:43;21.70;99.90
4896;DHT22;2463;49.948;8.472;2022-10-31T15:17:11;21.20;99.90
4896;DHT22;2463;49.948;8.472;2022-10-31T15:19:38;21.00;99.90
4896;DHT22;2463;49.948;8.472;2022-10-31T15:22:07;20.70;99.90
4896;DHT22;2463;49.948;8.472;2022-10-31T15:24:38;20.50;99.90
4896;DHT22;2463;49.948;8.472;2022-10-31T15:27:12;20.20;99.90
4896;DHT22;2463;49.948;8.472;2022-10-31T15:29:48;20.00;99.90
4896;DHT22;2463;49.948;8.472;2022-10-31T15:34:50;19.60;99.90
4896;DHT22;2463;49.948;8.472;2022-10-31T15:37:22;19.50;99.90
4896;DHT22;2463;49.948;8.472;2022-10-31T15:39:50;19.40;99.90
4896;DHT22;2463;49.948;8.472;2022-10-31T15:42:34;19.30;99.90
4896;DHT22;2463;49.948;8.472;2022-10-31T15:45:12;19.40;99.90
4896;DHT22;2463;49.948;8.472;2022-10-31T15:47:50;19.30;99.90
4896;DHT22;2463;49.948;8.472;2022-10-31T15:52:58;19.10;99.90
4896;DHT22;2463;49.948;8.472;2022-10-31T15:55:29;19.00;99.90
4896;DHT22;2463;49.948;8.472;2022-10-31T15:58:00;18.90;99.90
4896;DHT22;2463;49.948;8.472;2022-10-31T16:00:36;18.80;99.90
4896;DHT22;2463;49.948;8.472;2022-10-31T16:05:46;18.50;99.90
4896;DHT22;2463;49.948;8.472;2022-10-31T16:13:36;18.20;99.90
4896;DHT22;2463;49.948;8.472;2022-10-31T16:16:12;18.10;99.90
4896;DHT22;2463;49.948;8.472;2022-10-31T16:19:00;18.00;99.90
4896;DHT22;2463;49.948;8.472;2022-10-31T16:21:34;18.00;99.90
4896;DHT22;2463;49.948;8.472;2022-10-31T16:24:30;17.90;99.90
4896;DHT22;2463;49.948;8.472;2022-10-31T16:27:05;17.80;99.90
4896;DHT22;2463;49.948;8.472;2022-10-31T16:29:42;17.70;99.90
4896;DHT22;2463;49.948;8.472;2022-10-31T16:32:29;17.70;99.90
4896;DHT22;2463;49.948;8.472;2022-10-31T16:35:23;17.60;99.90
4896;DHT22;2463;49.948;8.472;2022-10-31T16:37:47;17.60;99.90
4896;DHT22;2463;49.948;8.472;2022-10-31T16:40:15;17.50;99.90
4896;DHT22;2463;49.948;8.472;2022-10-31T16:42:43;17.50;99.90
4896;DHT22;2463;49.948;8.472;2022-10-31T16:45:19;17.50;99.90
4896;DHT22;2463;49.948;8.472;2022-10-31T16:47:47;17.40;99.90
4896;DHT22;2463;49.948;8.472;2022-10-31T16:50:23;17.30;99.90
4896;DHT22;2463;49.948;8.472;2022-10-31T16:52:50;17.10;99.90
4896;DHT22;2463;49.948;8.472;2022-10-31T16:55:55;17.10;99.90
4896;DHT22;2463;49.948;8.472;2022-10-31T16:58:24;17.10;99.90
4896;DHT22;2463;49.948;8.472;2022-10-31T17:00:52;17.10;99.90
4896;DHT22;2463;49.948;8.472;2022-10-31T17:03:19;17.00;99.90
4896;DHT22;2463;49.948;8.472;2022-10-31T17:05:46;17.00;99.90
4896;DHT22;2463;49.948;8.472;2022-10-31T17:08:13;17.00;99.90
4896;DHT22;2463;49.948;8.472;2022-10-31T17:10:40;16.90;99.90
4896;DHT22;2463;49.948;8.472;2022-10-31T17:13:13;16.80;99.90
4896;DHT22;2463;49.948;8.472;2022-10-31T17:15:45;16.80;99.90
4896;DHT22;2463;49.948;8.472;2022-10-31T17:18:14;16.70;99.90
4896;DHT22;2463;49.948;8.472;2022-10-31T17:20:42;16.70;99.90
4896;DHT22;2463;49.948;8.472;2022-10-31T17:23:10;16.60;99.90
4896;DHT22;2463;49.948;8.472;2022-10-31T17:25:37;16.60;99.90
4896;DHT22;2463;49.948;8.472;2022-10-31T17:28:04;16.50;99.90
4896;DHT22;2463;49.948;8.472;2022-10-31T17:30:32;16.40;99.90
4896;DHT22;2463;49.948;8.472;2022-10-31T17:32:59;16.40;99.90
4896;DHT22;2463;49.948;8.472;2022-10-31T17:35:26;16.20;99.90
4896;DHT22;2463;49.948;8.472;2022-10-31T17:37:53;16.20;99.90
4896;DHT22;2463;49.948;8.472;2022-10-31T17:40:21;16.10;99.90
4896;DHT22;2463;49.948;8.472;2022-10-31T17:42:57;16.10;99.90
4896;DHT22;2463;49.948;8.472;2022-10-31T17:45:25;15.90;99.90
4896;DHT22;2463;49.948;8.472;2022-10-31T17:47:52;15.90;99.90
4896;DHT22;2463;49.948;8.472;2022-10-31T17:50:22;15.80;99.90
4896;DHT22;2463;49.948;8.472;2022-10-31T17:52:49;15.80;99.90
4896;DHT22;2463;49.948;8.472;2022-10-31T17:55:16;15.70;99.90
4896;DHT22;2463;49.948;8.472;2022-10-31T17:57:43;15.70;99.90
4896;DHT22;2463;49.948;8.472;2022-10-31T18:00:13;15.60;99.90
4896;DHT22;2463;49.948;8.472;2022-10-31T18:02:40;15.60;99.90
4896;DHT22;2463;49.948;8.472;2022-10-31T18:05:08;15.50;99.90
4896;DHT22;2463;49.948;8.472;2022-10-31T18:07:34;15.40;99.90
4896;DHT22;2463;49.948;8.472;2022-10-31T18:10:01;15.30;99.90
4896;DHT22;2463;49.948;8.472;2022-10-31T18:12:28;15.30;99.90
4896;DHT22;2463;49.948;8.472;2022-10-31T18:14:57;15.20;99.90
4896;DHT22;2463;49.948;8.472;2022-10-31T18:17:24;15.10;99.90
4896;DHT22;2463;49.948;8.472;2022-10-31T18:19:51;14.90;99.90
4896;DHT22;2463;49.948;8.472;2022-10-31T18:22:17;14.90;99.90
4896;DHT22;2463;49.948;8.472;2022-10-31T18:24:44;14.90;99.90
4896;DHT22;2463;49.948;8.472;2022-10-31T18:27:11;14.80;99.90
4896;DHT22;2463;49.948;8.472;2022-10-31T18:29:37;14.80;99.90
4896;DHT22;2463;49.948;8.472;2022-10-31T18:32:04;14.80;99.90
4896;DHT22;2463;49.948;8.472;2022-10-31T18:34:35;14.60;99.90
4896;DHT22;2463;49.948;8.472;2022-10-31T18:37:02;14.60;99.90
4896;DHT22;2463;49.948;8.472;2022-10-31T18:39:29;14.60;99.90